Time;durP1;ratioP1;P1;durP2;ratioP2;P2;SDS_P1;SDS_P2;PMS_P1;PMS_P2;Temp;Humidity;BMP_temperature;BMP_pressure;BME280_temperature;BME280_humidity;BME280_pressure;Samples;Min_cycle;Max_cycle;Signal;HPM_P1;HPM_P2
2021/09/01 00:01:46;;;;;;;;;;;;;;;-142.75;73.30;77704.28;5038390;28;20001;-76
2021/09/01 00:04:11;;;;;;;;;;;;;;;-142.75;73.34;77704.28;4971531;28;19914;-76
2021/09/01 00:06:36;;;;;;;;;;;;;;;-142.75;73.37;77702.31;5040188;28;19939;-76
2021/09/01 00:09:02;;;;;;;;;;;;;;;-142.75;73.46;77702.31;4972172;28;19922;-76
2021/09/01 00:11:28;;;;;;;;;;;;;;;-142.75;73.16;77704.28;5038509;28;19914;-76
2021/09/01 00:13:53;;;;;;;;;;;;;;;-142.75;73.36;77706.25;4972155;28;19922;-76
2021/09/01 00:16:28;;;;;;;;;;;;;;;-142.75;73.42;77706.25;4971818;28;19921;-76
2021/09/01 00:18:54;;;;;;;;;;;;;;;-142.75;73.31;77702.31;4971261;28;19914;-76
2021/09/01 00:21:19;;;;;;;;;;;;;;;-142.75;73.31;77692.47;5054267;28;20009;-76
2021/09/01 00:23:44;;;;;;;;;;;;;;;-142.75;73.55;77692.47;5038035;28;20395;-76
2021/09/01 00:26:09;;;;;;;;;;;;;;;-142.75;73.49;77692.47;4972074;28;19940;-76
2021/09/01 00:28:35;;;;;;;;;;;;;;;-142.75;73.24;77686.56;4971382;28;20360;-76
2021/09/01 00:31:00;;;;;;;;;;;;;;;-142.75;72.99;77684.59;4971297;28;19969;-76
2021/09/01 00:33:25;;;;;;;;;;;;;;;-142.75;72.97;77684.59;5038144;28;20330;-76
2021/09/01 00:35:50;;;;;;;;;;;;;;;-142.75;73.17;77690.50;5038577;28;19925;-76
2021/09/01 00:38:15;;;;;;;;;;;;;;;-142.75;73.29;77688.53;4971528;28;20392;-76
2021/09/01 00:40:40;;;;;;;;;;;;;;;-142.75;73.51;77694.44;4971107;28;19914;-76
2021/09/01 00:43:06;;;;;;;;;;;;;;;-142.75;73.64;77696.41;4971335;28;19929;-76
2021/09/01 00:45:32;;;;;;;;;;;;;;;-142.75;73.73;77696.41;4972541;28;19960;-76
2021/09/01 00:47:57;;;;;;;;;;;;;;;-142.75;73.74;77696.41;4974487;28;19949;-76
2021/09/01 00:50:22;;;;;;;;;;;;;;;-142.75;73.85;77686.56;4974070;28;19914;-76
2021/09/01 00:52:47;;;;;;;;;;;;;;;-142.75;73.74;77688.53;4974782;28;19978;-76
2021/09/01 00:55:12;;;;;;;;;;;;;;;-142.75;73.62;77692.47;5041859;28;20298;-76
2021/09/01 00:57:39;;;;;;;;;;;;;;;-142.75;73.83;77694.44;5042000;28;19921;-76
2021/09/01 01:00:05;;;;;;;;;;;;;;;-142.75;73.77;77694.44;4974372;28;20350;-76
2021/09/01 01:02:30;;;;;;;;;;;;;;;-142.75;73.55;77696.41;4974514;28;19921;-76
2021/09/01 01:04:55;;;;;;;;;;;;;;;-142.75;73.67;77696.41;4974409;28;19914;-76
2021/09/01 01:07:21;;;;;;;;;;;;;;;-142.75;73.54;77696.41;5041395;28;19914;-76
2021/09/01 01:09:48;;;;;;;;;;;;;;;-142.75;73.68;77708.22;5041442;28;19914;-75
2021/09/01 01:12:20;;;;;;;;;;;;;;;-142.75;74.04;77704.28;5041118;28;19918;-76
2021/09/01 01:14:50;;;;;;;;;;;;;;;-142.75;74.32;77694.44;4974694;28;20012;-76
2021/09/01 01:17:18;;;;;;;;;;;;;;;-142.75;74.61;77706.25;4973994;28;19914;-76
2021/09/01 01:19:48;;;;;;;;;;;;;;;-142.75;74.76;77708.22;4973718;28;19937;-76
2021/09/01 01:22:14;;;;;;;;;;;;;;;-142.75;74.93;77704.28;4973857;28;19926;-76
2021/09/01 01:24:55;;;;;;;;;;;;;;;-142.75;74.99;77706.25;5042312;28;20112;-76
2021/09/01 01:27:27;;;;;;;;;;;;;;;-142.75;73.25;77712.16;4974581;28;19918;-76
2021/09/01 01:29:54;;;;;;;;;;;;;;;-142.75;73.53;77704.28;4973875;28;20307;-76
2021/09/01 01:32:19;;;;;;;;;;;;;;;-142.75;73.92;77708.22;5057380;28;20060;-76
2021/09/01 01:34:44;;;;;;;;;;;;;;;-142.75;73.66;77702.31;4973937;28;20021;-76
2021/09/01 01:37:09;;;;;;;;;;;;;;;-142.75;73.50;77704.28;4973978;28;19918;-76
2021/09/01 01:39:35;;;;;;;;;;;;;;;-142.75;74.27;77694.44;4973959;28;20469;-76
2021/09/01 01:42:00;;;;;;;;;;;;;;;-142.75;73.89;77700.34;4973593;28;20006;-76
2021/09/01 01:44:25;;;;;;;;;;;;;;;-142.75;73.66;77702.31;4973848;28;19917;-76
2021/09/01 01:46:50;;;;;;;;;;;;;;;-142.75;73.79;77708.22;4973528;28;19914;-76
2021/09/01 01:49:17;;;;;;;;;;;;;;;-142.75;73.65;77704.28;5032593;28;19914;-76
2021/09/01 01:51:49;;;;;;;;;;;;;;;-142.75;73.32;77698.38;4954033;28;19984;-76
2021/09/01 01:54:14;;;;;;;;;;;;;;;-142.75;72.98;77700.34;4954207;28;20384;-76
2021/09/01 01:56:39;;;;;;;;;;;;;;;-142.75;73.39;77698.38;4953880;28;19925;-76
2021/09/01 01:59:04;;;;;;;;;;;;;;;-142.75;73.98;77700.34;4954533;28;19910;-76
2021/09/01 02:01:30;;;;;;;;;;;;;;;-142.75;74.41;77700.34;5020119;28;19962;-76
2021/09/01 02:03:55;;;;;;;;;;;;;;;-142.75;74.60;77700.34;4954433;28;19922;-76
2021/09/01 02:06:20;;;;;;;;;;;;;;;-142.75;74.19;77702.31;4954484;28;19937;-76
2021/09/01 02:08:45;;;;;;;;;;;;;;;-142.75;74.01;77704.28;4953952;28;19914;-76
2021/09/01 02:11:10;;;;;;;;;;;;;;;-142.75;73.90;77704.28;4953564;28;19922;-76
2021/09/01 02:13:35;;;;;;;;;;;;;;;-142.75;74.00;77710.19;5020150;28;20017;-76
2021/09/01 02:16:01;;;;;;;;;;;;;;;-142.75;73.96;77710.19;4953578;28;19925;-76
2021/09/01 02:18:26;;;;;;;;;;;;;;;-142.75;73.48;77704.28;4954004;28;19918;-76
2021/09/01 02:20:51;;;;;;;;;;;;;;;-142.75;73.32;77710.19;5020409;28;19918;-76
2021/09/01 02:23:16;;;;;;;;;;;;;;;-142.75;73.28;77712.16;4953520;28;19920;-76
2021/09/01 02:25:41;;;;;;;;;;;;;;;-142.75;73.64;77718.06;5019480;28;19918;-76
2021/09/01 02:28:06;;;;;;;;;;;;;;;-142.75;73.18;77723.97;4953187;28;19915;-76
2021/09/01 02:30:32;;;;;;;;;;;;;;;-142.75;73.28;77718.06;4953129;28;20001;-76
2021/09/01 02:32:57;;;;;;;;;;;;;;;-142.75;73.45;77720.03;5019674;28;19958;-76
2021/09/01 02:35:22;;;;;;;;;;;;;;;-142.75;73.83;77727.94;5019875;28;19918;-76
2021/09/01 02:37:52;;;;;;;;;;;;;;;-142.75;74.65;77722.00;4953576;28;20394;-76
2021/09/01 02:40:17;;;;;;;;;;;;;;;-142.75;74.29;77725.97;5019203;28;20376;-76
2021/09/01 02:42:42;;;;;;;;;;;;;;;-142.75;73.95;77723.97;5019883;28;20000;-76
2021/09/01 02:45:08;;;;;;;;;;;;;;;-142.75;74.32;77723.97;5020318;28;19921;-76
2021/09/01 02:47:33;;;;;;;;;;;;;;;-142.75;74.58;77727.94;4952099;28;19914;-76
2021/09/01 02:49:58;;;;;;;;;;;;;;;-142.75;74.29;77725.97;5018881;28;20005;-76
2021/09/01 02:52:23;;;;;;;;;;;;;;;-142.75;74.11;77729.88;4952469;28;19968;-76
2021/09/01 02:54:49;;;;;;;;;;;;;;;-142.75;75.11;77731.88;4952425;28;19919;-76
2021/09/01 02:57:14;;;;;;;;;;;;;;;-142.75;76.72;77735.81;4951890;28;19918;-76
2021/09/01 02:59:39;;;;;;;;;;;;;;;-142.75;76.80;77735.81;4952142;28;20368;-76
2021/09/01 03:02:04;;;;;;;;;;;;;;;-142.75;76.33;77735.81;4951889;28;20005;-76
2021/09/01 03:04:29;;;;;;;;;;;;;;;-142.75;76.25;77735.81;5018627;28;19973;-76
2021/09/01 03:06:54;;;;;;;;;;;;;;;-142.75;76.20;77741.72;5018542;28;20323;-76
2021/09/01 03:09:20;;;;;;;;;;;;;;;-142.75;75.75;77739.75;4951761;28;19925;-76
2021/09/01 03:11:45;;;;;;;;;;;;;;;-142.75;75.22;77733.84;5018507;28;20332;-76
2021/09/01 03:14:10;;;;;;;;;;;;;;;-142.75;74.84;77729.88;4952976;28;19926;-76
2021/09/01 03:16:35;;;;;;;;;;;;;;;-142.75;74.69;77729.88;5018214;28;19968;-76
2021/09/01 03:19:00;;;;;;;;;;;;;;;-142.75;74.83;77727.94;5017879;28;20012;-76
2021/09/01 03:21:25;;;;;;;;;;;;;;;-142.75;76.73;77743.69;4951636;28;19914;-76
2021/09/01 03:23:51;;;;;;;;;;;;;;;-142.75;77.19;77751.56;4952038;28;19914;-76
2021/09/01 03:26:16;;;;;;;;;;;;;;;-142.75;77.24;77751.56;4951401;28;19922;-76
2021/09/01 03:28:41;;;;;;;;;;;;;;;-142.75;77.74;77751.56;5048052;22;19944;-79
2021/09/01 03:31:06;;;;;;;;;;;;;;;-142.75;78.86;77759.44;4969015;28;19925;-79
2021/09/01 03:33:31;;;;;;;;;;;;;;;-142.75;79.52;77759.44;4970022;28;19914;-78
2021/09/01 03:35:57;;;;;;;;;;;;;;;-142.75;79.88;77769.28;4971157;28;19918;-79
2021/09/01 03:38:22;;;;;;;;;;;;;;;-142.75;80.25;77779.13;4970442;28;19914;-79
2021/09/01 03:40:47;;;;;;;;;;;;;;;-142.75;80.86;77779.13;4969633;28;19914;-79
2021/09/01 03:43:12;;;;;;;;;;;;;;;-142.75;80.87;77779.13;4971182;28;21360;-80
2021/09/01 03:45:38;;;;;;;;;;;;;;;-142.75;80.92;77783.06;4970727;28;20297;-79
2021/09/01 03:48:03;;;;;;;;;;;;;;;-142.75;80.73;77777.16;4970934;28;19957;-80
2021/09/01 03:50:29;;;;;;;;;;;;;;;-142.75;80.97;77783.06;5036755;28;19918;-79
2021/09/01 03:52:54;;;;;;;;;;;;;;;-142.75;81.42;77781.09;4969344;28;20299;-79
2021/09/01 03:55:20;;;;;;;;;;;;;;;-142.75;82.31;77787.00;5038290;28;19922;-79
2021/09/01 03:57:47;;;;;;;;;;;;;;;-142.75;82.93;77781.09;5017073;28;19914;-78
2021/09/01 04:00:12;;;;;;;;;;;;;;;-142.75;82.74;77771.25;4970517;28;19914;-78
2021/09/01 04:02:38;;;;;;;;;;;;;;;-142.75;82.83;77767.31;4970707;28;19921;-79
2021/09/01 04:05:03;;;;;;;;;;;;;;;-142.75;82.76;77763.38;4970775;28;19925;-79
2021/09/01 04:07:29;;;;;;;;;;;;;;;-142.75;82.52;77759.44;4970782;28;19945;-79
2021/09/01 04:09:54;;;;;;;;;;;;;;;-142.75;82.48;77767.31;5021649;28;19921;-78
2021/09/01 04:12:19;;;;;;;;;;;;;;;-142.75;82.41;77769.28;5037121;28;19918;-79
2021/09/01 04:14:44;;;;;;;;;;;;;;;-142.75;81.81;77759.44;4970590;28;19944;-78
2021/09/01 04:17:09;;;;;;;;;;;;;;;-142.75;80.54;77761.41;5036793;28;19922;-79
2021/09/01 04:19:36;;;;;;;;;;;;;;;-142.75;79.49;77759.44;4998509;28;20362;-79
2021/09/01 04:22:01;;;;;;;;;;;;;;;-142.75;79.30;77751.56;4973907;28;19953;-79
2021/09/01 04:24:27;;;;;;;;;;;;;;;-142.75;79.41;77753.53;4974299;28;19913;-79
2021/09/01 04:26:52;;;;;;;;;;;;;;;-142.75;79.90;77753.53;4973911;28;19922;-79
2021/09/01 04:29:17;;;;;;;;;;;;;;;-142.75;80.50;77775.19;4972500;28;19960;-79
2021/09/01 04:31:42;;;;;;;;;;;;;;;-142.75;80.95;77773.22;4973279;28;19914;-79
2021/09/01 04:34:08;;;;;;;;;;;;;;;-142.75;80.90;77788.97;5040512;28;19944;-79
2021/09/01 04:36:33;;;;;;;;;;;;;;;-142.75;81.29;77787.00;4973602;28;19914;-79
2021/09/01 04:38:58;;;;;;;;;;;;;;;-142.75;81.50;77781.09;4973565;28;20303;-80
2021/09/01 04:41:23;;;;;;;;;;;;;;;-142.75;81.78;77779.13;4973319;28;19914;-79
2021/09/01 04:43:48;;;;;;;;;;;;;;;-142.75;81.99;77783.06;4973362;28;19914;-79
2021/09/01 04:46:14;;;;;;;;;;;;;;;-142.75;82.63;77788.97;4972956;28;19914;-79
2021/09/01 04:48:39;;;;;;;;;;;;;;;-142.75;83.66;77798.81;4972699;28;19914;-79
2021/09/01 04:51:04;;;;;;;;;;;;;;;-142.75;84.90;77798.81;4973407;28;19922;-79
2021/09/01 04:53:29;;;;;;;;;;;;;;;-142.75;85.26;77794.88;4973659;28;19979;-79
2021/09/01 04:55:54;;;;;;;;;;;;;;;-142.75;85.27;77788.97;5038410;28;19970;-79
2021/09/01 04:58:19;;;;;;;;;;;;;;;-142.75;84.88;77792.91;4973510;28;19924;-78
2021/09/01 05:00:45;;;;;;;;;;;;;;;-142.75;84.25;77794.88;4972983;28;19914;-79
2021/09/01 05:03:10;;;;;;;;;;;;;;;-142.75;84.21;77796.84;5056529;28;19925;-79
2021/09/01 05:05:35;;;;;;;;;;;;;;;-142.75;84.51;77804.72;5055727;28;19914;-79
2021/09/01 05:08:00;;;;;;;;;;;;;;;-142.75;84.79;77800.78;5039985;28;19914;-79
2021/09/01 05:10:25;;;;;;;;;;;;;;;-142.75;84.32;77798.81;5055927;28;20380;-79
2021/09/01 05:12:51;;;;;;;;;;;;;;;-142.75;84.29;77794.88;4973082;28;19917;-79
2021/09/01 05:15:16;;;;;;;;;;;;;;;-142.75;84.75;77792.91;4972967;28;19918;-78
2021/09/01 05:17:42;;;;;;;;;;;;;;;-142.75;84.93;77788.97;4973062;28;19914;-79
2021/09/01 05:20:08;;;;;;;;;;;;;;;-142.75;85.05;77785.03;5040765;28;19921;-78
2021/09/01 05:22:34;;;;;;;;;;;;;;;-142.75;84.97;77777.16;4971743;28;19921;-79
2021/09/01 05:24:59;;;;;;;;;;;;;;;-142.75;84.50;77787.00;4973196;28;19921;-78
2021/09/01 05:27:26;;;;;;;;;;;;;;;-142.75;84.24;77781.09;5056193;28;19914;-79
2021/09/01 05:29:51;;;;;;;;;;;;;;;-142.75;84.81;77787.00;4972653;28;19921;-79
2021/09/01 05:32:18;;;;;;;;;;;;;;;-142.75;84.52;77785.03;5038393;28;19914;-80
2021/09/01 05:34:43;;;;;;;;;;;;;;;-142.75;83.99;77790.94;4972847;28;19918;-79
2021/09/01 05:37:13;;;;;;;;;;;;;;;-142.75;82.48;77787.00;4972869;28;20005;-79
2021/09/01 05:39:40;;;;;;;;;;;;;;;-142.75;80.99;77781.09;5038808;28;20331;-79
2021/09/01 05:42:05;;;;;;;;;;;;;;;-142.75;80.91;77779.13;4972492;28;19932;-79
2021/09/01 05:44:31;;;;;;;;;;;;;;;-142.75;80.71;77767.31;4972701;28;20008;-79
2021/09/01 05:46:58;;;;;;;;;;;;;;;-142.75;80.83;77771.25;5039288;28;19914;-78
2021/09/01 05:49:23;;;;;;;;;;;;;;;-142.75;80.93;77771.25;4971979;28;19914;-79
2021/09/01 05:51:49;;;;;;;;;;;;;;;-142.75;80.90;77767.31;5039496;28;19928;-78
2021/09/01 05:54:14;;;;;;;;;;;;;;;-142.75;80.66;77763.38;5013900;28;20005;-80
2021/09/01 05:56:43;;;;;;;;;;;;;;;-142.75;79.96;77765.34;4973216;28;20006;-77
2021/09/01 05:59:09;;;;;;;;;;;;;;;-142.75;79.11;77773.22;5039642;28;20371;-79
2021/09/01 06:01:38;;;;;;;;;;;;;;;-142.75;78.53;77757.47;4972685;28;19921;-80
2021/09/01 06:04:07;;;;;;;;;;;;;;;-142.75;77.98;77743.69;4972092;28;19918;-79
2021/09/01 06:06:35;;;;;;;;;;;;;;;-142.75;77.49;77749.59;4972564;28;19918;-79
2021/09/01 06:09:00;;;;;;;;;;;;;;;-142.75;77.20;77751.56;4972414;28;19914;-79
2021/09/01 06:11:27;;;;;;;;;;;;;;;-142.75;76.76;77747.63;4972471;28;19960;-79
2021/09/01 06:13:52;;;;;;;;;;;;;;;-142.75;76.61;77747.63;4972095;28;20306;-79
2021/09/01 06:16:17;;;;;;;;;;;;;;;-142.75;76.70;77751.56;4975200;28;19920;-79
2021/09/01 06:18:42;;;;;;;;;;;;;;;-142.75;76.69;77751.56;4975542;28;19914;-79
2021/09/01 06:21:07;;;;;;;;;;;;;;;-142.75;76.21;77747.63;4972641;28;19988;-79
2021/09/01 06:23:33;;;;;;;;;;;;;;;-142.75;75.80;77749.59;4971726;28;19922;-79
2021/09/01 06:25:59;;;;;;;;;;;;;;;-142.75;75.68;77749.59;5039994;28;20000;-79
2021/09/01 06:28:24;;;;;;;;;;;;;;;-142.75;75.58;77741.72;5039323;28;20115;-79
2021/09/01 06:30:49;;;;;;;;;;;;;;;-142.75;76.27;77743.69;5038924;28;19914;-79
2021/09/01 06:33:14;;;;;;;;;;;;;;;-142.75;77.31;77745.66;5004455;28;20395;-80
2021/09/01 06:35:40;;;;;;;;;;;;;;;-142.75;73.33;77739.75;5039274;28;19929;-79
2021/09/01 06:38:07;;;;;;;;;;;;;;;-142.75;70.58;77735.81;4971931;28;19914;-78
2021/09/01 06:40:32;;;;;;;;;;;;;;;-142.75;69.98;77725.97;4974568;28;19914;-78
2021/09/01 06:42:58;;;;;;;;;;;;;;;-142.75;69.39;77718.06;5019763;28;20299;-78
2021/09/01 06:45:23;;;;;;;;;;;;;;;-142.75;71.32;77706.25;4972691;28;19921;-79
2021/09/01 06:47:50;;;;;;;;;;;;;;;-142.75;73.73;77706.25;4973476;28;19914;-78
2021/09/01 06:50:16;;;;;;;;;;;;;;;-142.75;76.36;77696.41;4973881;28;19917;-80
2021/09/01 06:52:42;;;;;;;;;;;;;;;-142.75;77.65;77692.47;4973036;28;20016;-79
2021/09/01 06:55:08;;;;;;;;;;;;;;;-142.75;77.31;77676.72;4971838;28;19918;-79
2021/09/01 06:57:33;;;;;;;;;;;;;;;-142.75;76.66;77666.88;5038042;28;20047;-80
2021/09/01 06:59:59;;;;;;;;;;;;;;;-142.75;75.92;77655.06;4971977;28;19922;-79
2021/09/01 07:02:24;;;;;;;;;;;;;;;-142.75;75.44;77645.22;5039961;28;19993;-79
2021/09/01 07:04:49;;;;;;;;;;;;;;;-142.75;75.19;77637.34;5039159;28;19914;-80
2021/09/01 07:07:14;;;;;;;;;;;;;;;-142.75;74.90;77617.66;5038627;28;20381;-79
2021/09/01 07:09:39;;;;;;;;;;;;;;;-142.75;73.91;77625.53;4972509;28;20013;-81
2021/09/01 07:12:05;;;;;;;;;;;;;;;-142.75;74.26;77639.31;5038731;28;19957;-79
2021/09/01 07:14:30;;;;;;;;;;;;;;;-142.75;73.65;77639.31;4972730;28;19921;-79
2021/09/01 07:16:55;;;;;;;;;;;;;;;-142.75;73.47;77631.44;4971242;28;19972;-79
2021/09/01 07:19:20;;;;;;;;;;;;;;;-142.75;72.94;77625.53;5038560;28;19920;-79
2021/09/01 07:21:45;;;;;;;;;;;;;;;-142.75;71.91;77611.75;5039562;28;20252;-79
2021/09/01 07:24:10;;;;;;;;;;;;;;;-142.75;71.68;77609.78;4971526;28;19914;-78
2021/09/01 07:26:36;;;;;;;;;;;;;;;-142.75;71.57;77601.91;5038035;28;19949;-79
2021/09/01 07:29:01;;;;;;;;;;;;;;;-142.75;71.27;77594.03;4971239;28;19929;-78
2021/09/01 07:31:30;;;;;;;;;;;;;;;-142.75;70.75;77590.09;4971304;28;19918;-79
2021/09/01 07:33:55;;;;;;;;;;;;;;;-142.75;69.87;77580.25;4970965;28;20060;-79
2021/09/01 07:36:21;;;;;;;;;;;;;;;-142.75;69.33;77570.41;4972022;28;20376;-78
2021/09/01 07:38:46;;;;;;;;;;;;;;;-142.75;68.97;77572.38;4971534;28;19964;-78
2021/09/01 07:41:11;;;;;;;;;;;;;;;-142.75;69.33;77570.41;5037818;28;19914;-78
2021/09/01 07:43:36;;;;;;;;;;;;;;;-142.75;68.33;77574.34;4971251;28;19927;-78
2021/09/01 07:46:01;;;;;;;;;;;;;;;-142.75;67.64;77570.41;4970835;28;19921;-79
2021/09/01 07:48:27;;;;;;;;;;;;;;;-142.75;67.02;77574.34;4971646;28;19914;-78
2021/09/01 07:50:52;;;;;;;;;;;;;;;-142.75;67.17;77560.56;4966737;28;19925;-79
2021/09/01 07:53:17;;;;;;;;;;;;;;;-142.75;66.42;77562.53;5052734;28;19914;-79
2021/09/01 07:55:43;;;;;;;;;;;;;;;-142.75;67.31;77558.59;5037044;28;19925;-79
2021/09/01 07:58:08;;;;;;;;;;;;;;;-142.75;68.11;77554.66;5036926;28;19914;-79
2021/09/01 08:00:33;;;;;;;;;;;;;;;-142.75;67.41;77550.72;4970180;28;20356;-78
2021/09/01 08:02:58;;;;;;;;;;;;;;;-142.75;66.38;77546.78;5054083;28;19937;-78
2021/09/01 08:05:24;;;;;;;;;;;;;;;-142.75;64.94;77552.69;5037079;28;19960;-78
2021/09/01 08:07:49;;;;;;;;;;;;;;;-142.75;64.44;77554.66;5052773;28;20013;-77
2021/09/01 08:10:14;;;;;;;;;;;;;;;-142.75;65.51;77554.66;5035609;28;19921;-77
2021/09/01 08:12:41;;;;;;;;;;;;;;;-142.75;66.23;77550.72;5036195;28;19967;-77
2021/09/01 08:15:10;;;;;;;;;;;;;;;-142.75;65.34;77548.75;4970038;28;19922;-77
2021/09/01 08:17:35;;;;;;;;;;;;;;;-142.75;64.08;77548.75;5036162;28;19960;-77
2021/09/01 08:20:00;;;;;;;;;;;;;;;-142.75;63.70;77544.81;5036472;28;19965;-77
2021/09/01 08:22:26;;;;;;;;;;;;;;;-142.75;64.37;77546.78;5050863;28;20563;-77
2021/09/01 08:24:51;;;;;;;;;;;;;;;-142.75;63.49;77544.81;4968459;28;19914;-77
2021/09/01 08:27:16;;;;;;;;;;;;;;;-142.75;64.16;77533.00;5035029;28;20383;-77
2021/09/01 08:29:41;;;;;;;;;;;;;;;-142.75;63.02;77533.00;4970189;28;19914;-78
2021/09/01 08:32:07;;;;;;;;;;;;;;;-142.75;62.67;77519.22;4970125;28;19914;-77
2021/09/01 08:34:33;;;;;;;;;;;;;;;-142.75;62.69;77503.47;4970008;28;19918;-77
2021/09/01 08:36:59;;;;;;;;;;;;;;;-142.75;61.28;77487.72;5035763;28;20394;-76
2021/09/01 08:39:25;;;;;;;;;;;;;;;-142.75;60.29;77468.03;4969477;28;19914;-77
2021/09/01 08:41:51;;;;;;;;;;;;;;;-142.75;59.45;77452.25;4969259;28;20013;-78
2021/09/01 08:44:16;;;;;;;;;;;;;;;-142.75;60.32;77438.47;4969613;28;20307;-77
2021/09/01 08:46:42;;;;;;;;;;;;;;;-142.75;59.26;77434.53;4969085;28;19914;-77
2021/09/01 08:49:08;;;;;;;;;;;;;;;-142.75;59.63;77420.75;5036562;28;19948;-77
2021/09/01 08:51:34;;;;;;;;;;;;;;;-142.75;60.41;77401.06;4969433;28;19953;-77
2021/09/01 08:53:59;;;;;;;;;;;;;;;-142.75;60.34;77393.19;4969524;28;19933;-79
2021/09/01 08:56:25;;;;;;;;;;;;;;;-142.75;56.95;77387.28;4969804;28;19914;-77
2021/09/01 08:58:50;;;;;;;;;;;;;;;-142.75;57.40;77393.19;4969983;28;20024;-77
2021/09/01 09:01:34;;;;;;;;;;;;;;;-142.75;57.88;77393.19;4968371;28;20100;-77
2021/09/01 09:03:59;;;;;;;;;;;;;;;-142.75;59.09;77406.97;5051854;28;20100;-77
2021/09/01 09:06:27;;;;;;;;;;;;;;;-142.75;58.11;77418.78;4969451;28;20021;-77
2021/09/01 09:08:53;;;;;;;;;;;;;;;-142.75;58.89;77432.56;4971731;28;19914;-77
2021/09/01 09:11:18;;;;;;;;;;;;;;;-142.75;60.13;77440.44;4971412;28;19967;-77
2021/09/01 09:13:43;;;;;;;;;;;;;;;-142.75;59.53;77448.34;4973196;28;20299;-76
2021/09/01 09:16:09;;;;;;;;;;;;;;;-142.75;59.48;77460.13;4972763;28;20315;-77
2021/09/01 09:18:35;;;;;;;;;;;;;;;-142.75;61.25;77483.78;5039527;28;20372;-78
2021/09/01 09:21:15;;;;;;;;;;;;;;;-142.75;60.99;77511.34;4972354;28;20021;-77
2021/09/01 09:23:40;;;;;;;;;;;;;;;-142.75;62.71;77495.59;4972608;28;20009;-78
2021/09/01 09:26:22;;;;;;;;;;;;;;;-142.75;63.70;77473.94;4972313;28;19960;-76
2021/09/01 09:29:06;;;;;;;;;;;;;;;-142.75;62.56;77416.81;4972187;28;19943;-78
2021/09/01 09:31:31;;;;;;;;;;;;;;;-142.75;61.45;77351.84;4970861;28;19941;-77
2021/09/01 09:34:03;;;;;;;;;;;;;;;-142.75;59.59;77314.44;5055171;28;20463;-77
2021/09/01 09:36:28;;;;;;;;;;;;;;;-142.75;59.06;77282.94;4971537;28;19928;-77
2021/09/01 09:38:54;;;;;;;;;;;;;;;-142.75;58.54;77247.50;5054396;28;19914;-77
2021/09/01 09:41:21;;;;;;;;;;;;;;;-142.75;55.98;77196.31;4971724;28;19914;-78
2021/09/01 09:43:46;;;;;;;;;;;;;;;-142.75;56.88;77062.44;4972108;28;20327;-78
2021/09/01 09:46:11;;;;;;;;;;;;;;;-142.75;54.02;76936.44;4971798;28;19914;-78
2021/09/01 09:48:38;;;;;;;;;;;;;;;-142.75;51.27;76912.81;5038426;28;19914;-78
2021/09/01 09:51:04;;;;;;;;;;;;;;;-142.75;49.88;76975.81;5038205;28;20436;-77
2021/09/01 09:53:30;;;;;;;;;;;;;;;-142.75;51.44;77036.84;5038929;28;19925;-78
2021/09/01 09:56:03;;;;;;;;;;;;;;;-142.75;52.13;77062.44;5038892;28;19922;-76
2021/09/01 09:58:29;;;;;;;;;;;;;;;-142.75;53.20;77127.41;5038656;28;20410;-78
2021/09/01 10:00:54;;;;;;;;;;;;;;;-142.75;53.75;77176.63;5037805;28;19914;-77
2021/09/01 10:03:19;;;;;;;;;;;;;;;-142.75;54.70;77225.84;5038100;28;19918;-77
2021/09/01 10:05:44;;;;;;;;;;;;;;;-142.75;56.23;77265.22;4971002;28;20411;-77
2021/09/01 10:08:10;;;;;;;;;;;;;;;-142.75;57.54;77282.94;5037819;28;19926;-77
2021/09/01 10:10:36;;;;;;;;;;;;;;;-142.75;56.53;77263.25;4971390;28;20354;-77
2021/09/01 10:13:02;;;;;;;;;;;;;;;-142.75;56.63;77243.56;5038231;28;19992;-77
2021/09/01 10:15:30;;;;;;;;;;;;;;;-142.75;57.03;77237.66;4968864;28;20029;-78
2021/09/01 10:17:58;;;;;;;;;;;;;;;-142.75;56.27;77216.00;5037582;28;20000;-77
2021/09/01 10:20:25;;;;;;;;;;;;;;;-142.75;56.59;77174.66;4971535;28;19914;-77
2021/09/01 10:23:00;;;;;;;;;;;;;;;-142.75;54.59;77137.25;4971551;28;19914;-78
2021/09/01 10:25:36;;;;;;;;;;;;;;;-142.75;53.09;77097.88;4970721;28;20287;-77
2021/09/01 10:28:19;;;;;;;;;;;;;;;-142.75;52.99;77030.94;4971736;28;19914;-77
2021/09/01 10:31:03;;;;;;;;;;;;;;;-142.75;51.56;76946.28;4972078;28;19925;-78
2021/09/01 10:33:35;;;;;;;;;;;;;;;-142.75;50.23;76885.25;5010720;28;19921;-77
2021/09/01 10:36:20;;;;;;;;;;;;;;;-142.75;48.25;76869.50;4971097;28;19975;-78
2021/09/01 10:38:45;;;;;;;;;;;;;;;-142.75;49.37;76897.06;5039014;28;20422;-77
2021/09/01 10:41:11;;;;;;;;;;;;;;;-142.75;49.51;76885.25;5038328;28;19918;-79
2021/09/01 10:43:36;;;;;;;;;;;;;;;-142.75;48.75;76914.78;5053600;28;19960;-78
2021/09/01 10:46:02;;;;;;;;;;;;;;;-142.75;48.43;76912.81;4971470;28;19913;-77
2021/09/01 10:48:27;;;;;;;;;;;;;;;-142.75;49.16;76932.50;5038386;28;19968;-77
2021/09/01 10:50:52;;;;;;;;;;;;;;;-142.75;49.57;76946.28;5037809;28;20000;-79
2021/09/01 10:53:19;;;;;;;;;;;;;;;-142.75;50.52;76971.88;4971317;28;20678;-77
2021/09/01 10:55:46;;;;;;;;;;;;;;;-142.75;51.36;76999.44;4971648;28;19976;-77
2021/09/01 10:58:23;;;;;;;;;;;;;;;-142.75;51.93;77025.03;5037320;28;19965;-77
2021/09/01 11:00:53;;;;;;;;;;;;;;;-142.75;52.18;77038.81;4969511;28;19918;-78
2021/09/01 11:03:28;;;;;;;;;;;;;;;-142.75;51.05;77062.44;4970853;28;19914;-77
2021/09/01 11:05:53;;;;;;;;;;;;;;;-142.75;51.57;77074.25;4970731;28;19920;-78
2021/09/01 11:08:18;;;;;;;;;;;;;;;-142.75;51.96;77074.25;5037077;28;20008;-77
2021/09/01 11:10:56;;;;;;;;;;;;;;;-142.75;53.14;77068.34;5037402;28;20440;-78
2021/09/01 11:13:36;;;;;;;;;;;;;;;-142.75;52.93;77068.34;5037382;28;19914;-77
2021/09/01 11:16:01;;;;;;;;;;;;;;;-142.75;53.94;77086.06;5036663;28;20012;-77
2021/09/01 11:18:26;;;;;;;;;;;;;;;-142.75;53.83;77078.19;5037397;28;20403;-77
2021/09/01 11:20:53;;;;;;;;;;;;;;;-142.75;54.08;77101.81;4966169;28;19957;-78
2021/09/01 11:23:23;;;;;;;;;;;;;;;-142.75;53.90;77115.59;4971078;28;20372;-77
2021/09/01 11:25:48;;;;;;;;;;;;;;;-142.75;54.58;77133.31;4970399;28;19913;-77
2021/09/01 11:28:14;;;;;;;;;;;;;;;-142.75;55.45;77170.72;4968674;28;20406;-77
2021/09/01 11:30:39;;;;;;;;;;;;;;;-142.75;56.46;77198.28;4969050;28;19914;-78
2021/09/01 11:33:04;;;;;;;;;;;;;;;-142.75;55.45;77219.94;4970627;28;20424;-77
2021/09/01 11:35:29;;;;;;;;;;;;;;;-142.75;55.96;77243.56;4970291;28;19928;-77
2021/09/01 11:37:58;;;;;;;;;;;;;;;-142.75;57.60;77255.38;5038124;28;20384;-78
2021/09/01 11:40:31;;;;;;;;;;;;;;;-142.75;57.38;77249.47;4970656;28;20021;-77
2021/09/01 11:42:56;;;;;;;;;;;;;;;-142.75;58.26;77251.44;4969722;28;19971;-77
2021/09/01 11:45:22;;;;;;;;;;;;;;;-142.75;57.79;77245.53;4969850;28;19965;-77
2021/09/01 11:47:47;;;;;;;;;;;;;;;-142.75;58.00;77249.47;4968573;28;20283;-77
2021/09/01 11:50:16;;;;;;;;;;;;;;;-142.75;59.38;77263.25;5035533;28;19918;-78
2021/09/01 11:52:41;;;;;;;;;;;;;;;-142.75;59.51;77273.09;5035659;28;20380;-79
2021/09/01 11:55:07;;;;;;;;;;;;;;;-142.75;59.22;77263.25;5036650;28;19932;-78
2021/09/01 11:57:32;;;;;;;;;;;;;;;-142.75;59.04;77257.34;5035494;28;19914;-77
2021/09/01 11:59:58;;;;;;;;;;;;;;;-142.75;58.56;77235.69;4968488;28;19940;-77
2021/09/01 12:02:31;;;;;;;;;;;;;;;-142.75;58.54;77237.66;4993203;23;20568;-75
2021/09/01 12:04:56;;;;;;;;;;;;;;;-142.75;57.27;77227.81;4967688;28;19918;-74
2021/09/01 12:07:32;;;;;;;;;;;;;;;-142.75;57.30;77221.91;4969161;28;19933;-75
2021/09/01 12:09:59;;;;;;;;;;;;;;;-142.75;57.15;77227.81;4969412;28;19914;-74
2021/09/01 12:12:38;;;;;;;;;;;;;;;-142.75;57.20;77231.75;4971813;28;20313;-74
2021/09/01 12:15:12;;;;;;;;;;;;;;;-142.75;58.43;77239.63;4987995;28;19918;-74
2021/09/01 12:17:37;;;;;;;;;;;;;;;-142.75;56.90;77243.56;4978626;28;19921;-74
2021/09/01 12:20:03;;;;;;;;;;;;;;;-142.75;57.42;77237.66;4968422;28;19933;-74
2021/09/01 12:22:31;;;;;;;;;;;;;;;-142.75;57.83;77237.66;4968482;28;19957;-74
2021/09/01 12:25:15;;;;;;;;;;;;;;;-142.75;57.49;77227.81;4968869;28;20009;-74